createdAt,value
2019-02-24T00:01:50.721Z,98858.58
2019-02-24T00:05:52.672Z,98859.39
2019-02-24T00:09:55.196Z,98850.25
2019-02-24T00:13:58.239Z,98846.43
2019-02-24T00:18:00.843Z,98838.75
2019-02-24T00:22:03.084Z,98835.27
2019-02-24T00:26:05.241Z,98831.66
2019-02-24T00:30:08.876Z,98836.30
2019-02-24T00:34:11.054Z,98828.25
2019-02-24T00:38:12.971Z,98826.30
2019-02-24T00:42:15.387Z,98825.00
2019-02-24T00:46:18.105Z,98819.58
2019-02-24T00:50:20.445Z,98814.66
2019-02-24T00:54:22.353Z,98816.89
2019-02-24T00:58:24.384Z,98818.30
2019-02-24T01:02:26.303Z,98820.05
2019-02-24T01:06:28.221Z,98821.17
2019-02-24T01:10:30.143Z,98819.04
2019-02-24T01:14:32.064Z,98823.84
2019-02-24T01:18:33.991Z,98833.12
2019-02-24T01:22:35.913Z,98817.66
2019-02-24T01:26:37.884Z,98819.23
2019-02-24T01:30:40.780Z,98823.86
2019-02-24T01:34:42.702Z,98824.06
2019-02-24T01:38:44.625Z,98820.25
2019-02-24T01:42:46.544Z,98825.16
2019-02-24T01:46:48.449Z,98825.72
2019-02-24T01:50:50.365Z,98813.89
2019-02-24T01:54:52.288Z,98808.89
2019-02-24T01:58:54.210Z,98806.69
2019-02-24T02:02:56.126Z,98806.02
2019-02-24T02:06:58.034Z,98814.84
2019-02-24T02:10:59.956Z,98813.44
2019-02-24T02:15:01.873Z,98812.32
2019-02-24T02:19:04.775Z,98805.78
2019-02-24T02:23:06.701Z,98808.16
2019-02-24T02:27:08.609Z,98806.69
2019-02-24T02:31:10.532Z,98810.02
2019-02-24T02:35:13.425Z,98807.80
2019-02-24T02:39:15.384Z,98809.45
2019-02-24T02:43:17.763Z,98807.06
2019-02-24T02:47:19.666Z,98806.05
2019-02-24T02:51:21.628Z,98802.80
2019-02-24T02:55:23.539Z,98810.00
2019-02-24T02:59:25.501Z,98801.71
2019-02-24T03:03:27.514Z,98797.73
2019-02-24T03:07:31.054Z,98791.81
2019-02-24T03:11:32.975Z,98792.90
2019-02-24T03:15:35.005Z,98789.30
2019-02-24T03:19:36.931Z,98786.17
2019-02-24T03:23:38.853Z,98783.77
2019-02-24T03:27:40.768Z,98787.27
2019-02-24T03:31:42.681Z,98783.38
2019-02-24T03:35:44.586Z,98782.28
2019-02-24T03:39:46.501Z,98776.38
2019-02-24T03:43:48.418Z,98778.02
2019-02-24T03:47:50.342Z,98773.39
2019-02-24T03:51:52.261Z,98777.17
2019-02-24T03:55:54.550Z,98779.69
2019-02-24T03:59:56.472Z,98784.30
2019-02-24T04:03:58.466Z,98790.02
2019-02-24T04:08:00.374Z,98798.50
2019-02-24T04:12:02.292Z,98802.20
2019-02-24T04:16:07.770Z,98807.27
2019-02-24T04:20:09.688Z,98803.28
2019-02-24T04:24:11.617Z,98807.55
2019-02-24T04:28:13.531Z,98809.28
2019-02-24T04:32:15.457Z,98808.64
2019-02-24T04:36:17.384Z,98813.42
2019-02-24T04:40:19.300Z,98814.14
2019-02-24T04:44:21.216Z,98813.05
2019-02-24T04:48:23.129Z,98797.34
2019-02-24T04:52:25.184Z,98801.41
2019-02-24T04:56:27.085Z,98807.80
2019-02-24T05:00:29.025Z,98820.73
2019-02-24T05:04:31.040Z,98828.75
2019-02-24T05:08:32.934Z,98833.34
2019-02-24T05:12:34.859Z,98839.97
2019-02-24T05:16:52.707Z,98838.84
2019-02-24T05:20:54.639Z,98839.03
2019-02-24T05:24:56.568Z,98839.20
2019-02-24T05:28:58.469Z,98843.84
2019-02-24T05:33:00.388Z,98845.14
2019-02-24T05:37:02.292Z,98849.73
2019-02-24T05:41:04.243Z,98851.34
2019-02-24T05:45:07.087Z,98849.14
2019-02-24T05:49:08.971Z,98853.77
2019-02-24T05:53:10.996Z,98839.91
2019-02-24T05:57:12.910Z,98835.48
2019-02-24T06:01:15.061Z,98834.83
2019-02-24T06:05:16.987Z,98841.94
2019-02-24T06:09:18.986Z,98829.64
2019-02-24T06:13:21.061Z,98826.05
2019-02-24T06:17:23.160Z,98825.21
2019-02-24T06:21:25.103Z,98821.98
2019-02-24T06:25:27.047Z,98822.17
2019-02-24T06:29:29.223Z,98841.81
2019-02-24T06:33:31.169Z,98820.98
2019-02-24T06:37:33.090Z,98824.14
2019-02-24T06:41:35.032Z,98824.41
2019-02-24T06:45:36.950Z,98819.98
2019-02-24T06:49:38.856Z,98820.84
2019-02-24T06:53:40.778Z,98823.69
2019-02-24T06:57:42.693Z,98815.44
2019-02-24T07:01:44.620Z,98809.72
2019-02-24T07:05:46.528Z,98712.73
2019-02-24T07:09:48.471Z,98811.06
2019-02-24T07:13:50.397Z,98805.25
2019-02-24T07:17:52.320Z,98809.50
2019-02-24T07:21:54.244Z,98815.19
2019-02-24T07:25:56.158Z,98825.17
2019-02-24T07:29:59.059Z,98827.39
2019-02-24T07:34:01.364Z,98838.38
2019-02-24T07:38:03.340Z,98827.56
2019-02-24T07:42:05.357Z,98828.11
2019-02-24T07:46:07.308Z,98824.70
2019-02-24T07:50:10.251Z,98836.16
2019-02-24T07:54:12.172Z,98841.72
2019-02-24T07:58:15.123Z,98850.50
2019-02-24T08:02:17.214Z,98836.39
2019-02-24T08:06:19.123Z,98830.85
2019-02-24T08:10:21.056Z,98823.05
2019-02-24T08:14:22.993Z,98836.75
2019-02-24T08:18:25.020Z,98826.91
2019-02-24T08:22:26.955Z,98819.47
2019-02-24T08:26:28.866Z,98839.10
2019-02-24T08:30:30.831Z,98835.69
2019-02-24T08:34:32.754Z,98822.27
2019-02-24T08:38:34.690Z,98817.02
2019-02-24T08:42:36.637Z,98793.98
2019-02-24T08:46:38.540Z,98789.80
2019-02-24T08:50:40.463Z,98775.39
2019-02-24T08:54:42.396Z,98793.91
2019-02-24T08:58:44.319Z,98796.75
2019-02-24T09:02:46.258Z,98799.96
2019-02-24T09:06:48.156Z,98795.80
2019-02-24T09:10:50.090Z,98791.90
2019-02-24T09:14:52.003Z,98804.89
2019-02-24T09:18:53.935Z,98794.76
2019-02-24T09:22:55.830Z,98796.11
2019-02-24T09:26:57.772Z,98818.34
2019-02-24T09:31:01.024Z,98808.84
2019-02-24T09:35:03.218Z,98803.01
2019-02-24T09:39:05.981Z,98817.22
2019-02-24T09:43:07.984Z,98793.47
2019-02-24T09:47:09.876Z,98804.20
2019-02-24T09:51:11.788Z,98800.20
2019-02-24T09:55:13.698Z,98797.34
2019-02-24T09:59:15.640Z,98782.47
2019-02-24T10:03:17.552Z,98786.40
2019-02-24T10:07:19.438Z,98775.78
2019-02-24T10:11:21.351Z,98774.23
2019-02-24T10:15:23.262Z,98780.98
2019-02-24T10:19:25.182Z,98793.73
2019-02-24T10:23:27.257Z,98814.13
2019-02-24T10:27:29.208Z,98822.86
2019-02-24T10:31:31.114Z,98833.45
2019-02-24T10:35:33.094Z,98848.09
2019-02-24T10:39:35.015Z,98850.42
2019-02-24T10:43:36.911Z,98857.69
2019-02-24T10:47:38.863Z,98863.95
2019-02-24T10:51:40.755Z,98866.16
2019-02-24T10:55:42.670Z,98860.48
2019-02-24T10:59:44.621Z,98851.45
2019-02-24T11:03:46.519Z,98844.69
2019-02-24T11:07:48.432Z,98844.81
2019-02-24T11:11:50.337Z,98839.59
2019-02-24T11:15:52.325Z,98839.39
2019-02-24T11:19:54.311Z,98836.95
2019-02-24T11:23:56.223Z,98826.86
2019-02-24T11:27:58.258Z,98817.68
2019-02-24T11:32:00.158Z,98815.95
2019-02-24T11:36:02.099Z,98811.19
2019-02-24T11:40:05.795Z,98799.97
2019-02-24T11:44:07.713Z,98799.06
2019-02-24T11:48:09.633Z,98797.02
2019-02-24T11:52:11.525Z,98800.00
2019-02-24T11:56:13.428Z,98797.21
2019-02-24T22:54:29.874Z,98811.82
2019-02-24T22:58:31.790Z,98812.37
2019-02-24T23:02:34.079Z,98814.23
2019-02-24T23:06:36.000Z,98814.90
2019-02-24T23:10:38.879Z,98818.94
2019-02-24T23:14:40.807Z,98824.94
2019-02-24T23:18:42.739Z,98825.33
2019-02-24T23:22:44.664Z,98826.63
2019-02-24T23:26:46.625Z,98832.77
2019-02-24T23:30:48.528Z,98839.26
2019-02-24T23:34:51.422Z,98838.88
2019-02-24T23:38:53.349Z,98830.25
2019-02-24T23:42:56.340Z,98825.75
2019-02-24T23:46:58.253Z,98822.52
2019-02-24T23:51:00.171Z,98824.30
2019-02-24T23:55:05.925Z,98824.64
2019-02-24T23:59:08.691Z,98822.63
